createdAt,value
2022-10-21T00:01:33.210Z,22.58
2022-10-21T00:06:35.608Z,24.55
2022-10-21T00:11:37.946Z,17.05
2022-10-21T00:16:40.439Z,22.95
2022-10-21T00:21:42.978Z,19.23
2022-10-21T00:26:45.174Z,18.67
2022-10-21T00:31:47.532Z,20.40
2022-10-21T00:36:49.998Z,22.65
2022-10-21T00:41:52.358Z,21.48
2022-10-21T00:46:59.653Z,15.35
2022-10-21T00:52:04.465Z,16.42
2022-10-21T00:57:08.040Z,14.77
2022-10-21T01:02:10.802Z,22.90
2022-10-21T01:07:14.418Z,18.75
2022-10-21T01:12:31.242Z,23.02
2022-10-21T01:17:44.097Z,19.58
2022-10-21T01:23:32.214Z,16.42
2022-10-21T01:28:48.772Z,24.05
2022-10-21T01:34:18.114Z,21.88
2022-10-21T01:39:57.536Z,20.77
2022-10-21T01:45:13.129Z,22.20
2022-10-21T01:50:21.393Z,18.75
2022-10-21T01:55:27.453Z,23.75
2022-10-21T02:00:30.696Z,26.48
2022-10-21T02:05:34.740Z,21.08
2022-10-21T02:10:46.609Z,27.58
2022-10-21T02:15:48.923Z,21.10
2022-10-21T02:20:56.649Z,17.60
2022-10-21T02:25:59.095Z,21.55
2022-10-21T02:31:20.179Z,21.92
2022-10-21T02:36:45.484Z,17.48
2022-10-21T02:41:49.105Z,39.30
2022-10-21T02:46:52.750Z,18.70
2022-10-21T02:51:55.086Z,19.77
2022-10-21T02:56:57.404Z,22.23
2022-10-21T03:01:59.988Z,19.13
2022-10-21T03:07:02.554Z,19.52
2022-10-21T03:12:04.794Z,31.13
2022-10-21T03:17:07.014Z,22.98
2022-10-21T03:22:09.212Z,23.00
2022-10-21T03:27:11.396Z,22.40
2022-10-21T03:32:13.593Z,19.17
2022-10-21T03:37:15.777Z,26.42
2022-10-21T03:42:18.036Z,25.23
2022-10-21T03:47:20.205Z,19.45
2022-10-21T03:52:22.382Z,25.27
2022-10-21T03:57:24.557Z,23.42
2022-10-21T04:02:26.907Z,45.33
2022-10-21T04:07:29.296Z,22.35
2022-10-21T04:12:31.432Z,29.83
2022-10-21T04:17:33.748Z,24.55
2022-10-21T04:22:36.396Z,23.17
2022-10-21T04:27:38.809Z,28.15
2022-10-21T04:32:41.619Z,26.95
2022-10-21T04:37:44.666Z,33.42
2022-10-21T04:42:50.656Z,31.73
2022-10-21T04:47:52.938Z,47.35
2022-10-21T04:52:55.089Z,27.38
2022-10-21T04:57:57.440Z,32.42
2022-10-21T05:03:00.238Z,62.83
2022-10-21T05:08:02.582Z,47.72
2022-10-21T05:13:04.926Z,43.22
2022-10-21T05:18:07.474Z,26.40
2022-10-21T05:23:09.781Z,29.50
2022-10-21T05:28:11.989Z,35.90
2022-10-21T05:33:14.638Z,29.70
2022-10-21T05:38:16.960Z,38.38
2022-10-21T05:43:19.629Z,27.33
2022-10-21T05:48:22.026Z,28.40
2022-10-21T05:53:25.157Z,22.80
2022-10-21T05:58:28.343Z,22.65
2022-10-21T06:03:33.391Z,24.98
2022-10-21T06:08:37.997Z,27.70
2022-10-21T06:13:41.338Z,18.17
2022-10-21T06:18:43.871Z,17.08
2022-10-21T06:23:46.032Z,17.15
2022-10-21T06:28:48.407Z,24.38
2022-10-21T06:33:50.728Z,21.80
2022-10-21T06:38:53.295Z,20.95
2022-10-21T06:43:55.510Z,22.00
2022-10-21T06:48:58.099Z,25.45
2022-10-21T06:54:00.766Z,23.88
2022-10-21T06:59:03.127Z,21.50
2022-10-21T07:04:06.459Z,30.30
2022-10-21T07:09:09.248Z,22.92
2022-10-21T07:14:12.922Z,15.63
2022-10-21T07:19:15.473Z,18.83
2022-10-21T07:24:22.181Z,30.05
2022-10-21T07:29:25.005Z,25.10
2022-10-21T07:34:27.348Z,24.92
2022-10-21T07:39:29.873Z,19.92
2022-10-21T07:44:32.103Z,36.63
2022-10-21T07:49:34.331Z,17.60
2022-10-21T07:54:36.805Z,30.92
2022-10-21T07:59:39.187Z,29.42
2022-10-21T08:04:41.584Z,17.70
2022-10-21T08:09:43.789Z,23.75
2022-10-21T08:14:46.091Z,21.73
2022-10-21T08:19:48.722Z,19.60
2022-10-21T08:24:50.987Z,21.38
2022-10-21T08:29:53.172Z,23.70
2022-10-21T08:34:55.655Z,19.55
2022-10-21T08:39:58.433Z,23.08
2022-10-21T08:45:07.490Z,30.08
2022-10-21T08:50:22.336Z,23.50
2022-10-21T08:55:33.756Z,17.65
2022-10-21T09:01:04.429Z,17.35
2022-10-21T09:06:40.164Z,21.98
2022-10-21T09:11:47.296Z,42.22
2022-10-21T09:17:05.911Z,25.92
2022-10-21T09:22:45.394Z,29.92
2022-10-21T09:27:56.052Z,27.98
2022-10-21T09:33:00.676Z,35.30
2022-10-21T09:38:07.254Z,23.98
2022-10-21T09:43:18.880Z,19.92
2022-10-21T09:48:26.076Z,18.17
2022-10-21T09:53:34.829Z,16.90
2022-10-21T09:58:37.028Z,17.53
2022-10-21T10:03:46.462Z,19.88
2022-10-21T10:08:49.021Z,18.98
2022-10-21T10:13:53.582Z,11.90
2022-10-21T10:19:22.390Z,11.93
2022-10-21T10:24:24.609Z,12.65
2022-10-21T10:29:29.397Z,22.90
2022-10-21T10:34:37.904Z,16.63
2022-10-21T10:39:40.825Z,23.55
2022-10-21T10:44:45.141Z,15.25
2022-10-21T10:49:47.954Z,15.30
2022-10-21T10:55:12.842Z,30.27
2022-10-21T11:00:21.247Z,24.30
2022-10-21T11:11:48.904Z,12.27
2022-10-21T11:17:09.735Z,9.73
2022-10-21T11:22:50.295Z,16.23
2022-10-21T11:28:04.876Z,11.48
2022-10-21T11:34:01.586Z,11.38
2022-10-21T11:39:32.851Z,13.27
2022-10-21T11:44:55.328Z,13.38
2022-10-21T11:50:12.273Z,16.27
2022-10-21T11:55:25.961Z,11.18
2022-10-21T12:00:31.647Z,16.33
2022-10-21T12:05:55.285Z,9.13
2022-10-21T12:11:00.491Z,12.63
2022-10-21T12:16:12.290Z,14.25
2022-10-21T12:21:22.187Z,10.77
2022-10-21T12:26:32.621Z,12.63
2022-10-21T12:31:51.892Z,9.68
2022-10-21T12:36:55.416Z,9.60
2022-10-21T12:42:24.885Z,8.55
2022-10-21T12:47:35.075Z,13.25
2022-10-21T12:52:39.458Z,10.15
2022-10-21T12:57:42.633Z,11.57
2022-10-21T13:02:57.454Z,10.00
2022-10-21T13:08:27.572Z,12.88
2022-10-21T13:13:39.910Z,12.15
2022-10-21T13:18:52.061Z,12.57
2022-10-21T13:23:55.478Z,8.93
2022-10-21T13:29:02.174Z,12.02
2022-10-21T13:34:04.713Z,11.10
2022-10-21T13:39:24.846Z,9.85
2022-10-21T13:44:35.850Z,9.38
2022-10-21T13:49:38.432Z,9.00
2022-10-21T13:54:40.633Z,10.93
2022-10-21T13:59:42.898Z,9.02
2022-10-21T14:04:45.211Z,7.70
2022-10-21T14:09:55.338Z,10.82
2022-10-21T14:15:02.216Z,12.30
2022-10-21T14:20:14.371Z,10.75
2022-10-21T14:25:18.233Z,9.75
2022-10-21T14:30:26.389Z,8.20
2022-10-21T14:35:30.621Z,8.43
2022-10-21T14:40:41.993Z,7.53
2022-10-21T14:45:49.792Z,7.88
2022-10-21T14:50:55.630Z,7.85
2022-10-21T14:56:00.710Z,8.35
2022-10-21T15:01:19.973Z,7.07
2022-10-21T15:11:29.457Z,8.35
2022-10-21T15:16:31.779Z,8.35
2022-10-21T15:22:02.150Z,8.18
2022-10-21T15:27:05.772Z,10.88
2022-10-21T15:32:10.957Z,14.00
2022-10-21T15:37:13.157Z,12.18
2022-10-21T15:42:18.803Z,5.35
2022-10-21T15:47:21.190Z,7.47
2022-10-21T15:52:23.574Z,9.70
2022-10-21T15:57:25.847Z,13.88
2022-10-21T16:02:28.059Z,8.70
2022-10-21T16:07:33.016Z,7.22
2022-10-21T16:12:35.417Z,10.43
2022-10-21T16:17:37.746Z,9.23
2022-10-21T16:22:40.325Z,10.88
2022-10-21T16:27:55.218Z,8.48
2022-10-21T16:32:58.161Z,12.90
2022-10-21T16:38:00.403Z,10.90
2022-10-21T16:43:02.674Z,9.10
2022-10-21T16:48:05.676Z,7.53
2022-10-21T16:53:13.185Z,11.70
2022-10-21T16:58:15.431Z,4.90
2022-10-21T17:03:17.685Z,9.85
2022-10-21T17:08:19.920Z,10.77
2022-10-21T17:13:22.395Z,11.40
2022-10-21T17:18:24.606Z,11.48
2022-10-21T17:23:29.628Z,15.82
2022-10-21T17:28:32.195Z,10.00
2022-10-21T17:33:34.528Z,11.55
2022-10-21T17:38:37.267Z,10.30
2022-10-21T17:43:39.659Z,16.08
2022-10-21T17:48:42.103Z,10.60
2022-10-21T17:53:44.604Z,11.90
2022-10-21T17:58:51.164Z,13.52
2022-10-21T18:03:54.355Z,17.05
2022-10-21T18:08:59.722Z,9.98
2022-10-21T18:14:02.837Z,25.75
2022-10-21T18:19:05.040Z,20.65
2022-10-21T18:24:11.455Z,18.00
2022-10-21T18:29:14.733Z,13.88
2022-10-21T18:34:17.103Z,17.55
2022-10-21T18:39:20.272Z,26.27
2022-10-21T18:44:22.550Z,16.75
2022-10-21T18:49:24.922Z,18.73
2022-10-21T18:54:27.253Z,18.08
2022-10-21T18:59:29.435Z,18.13
2022-10-21T19:04:31.734Z,19.52
2022-10-21T19:09:34.223Z,14.77
2022-10-21T19:14:36.584Z,17.48
2022-10-21T19:19:39.630Z,19.42
2022-10-21T19:24:42.069Z,19.50
2022-10-21T19:29:45.445Z,17.33
2022-10-21T19:34:47.905Z,23.13
2022-10-21T19:39:50.421Z,31.23
2022-10-21T19:44:53.225Z,23.30
2022-10-21T19:49:55.688Z,23.25
2022-10-21T19:54:58.387Z,40.33
2022-10-21T20:00:00.854Z,25.48
2022-10-21T20:05:03.454Z,30.00
2022-10-21T20:10:06.646Z,48.35
2022-10-21T20:15:09.652Z,49.53
2022-10-21T20:20:12.094Z,33.40
2022-10-21T20:25:14.519Z,35.50
2022-10-21T20:30:17.231Z,30.05
2022-10-21T20:35:20.568Z,29.80
2022-10-21T20:40:23.143Z,25.75
2022-10-21T20:45:25.433Z,26.70
2022-10-21T20:50:28.136Z,22.67
2022-10-21T20:55:30.574Z,33.88
2022-10-21T21:06:13.865Z,25.23
2022-10-21T21:11:16.662Z,24.33
2022-10-21T21:16:21.564Z,25.48
2022-10-21T21:21:26.134Z,26.48
2022-10-21T21:26:30.054Z,20.42
2022-10-21T21:31:32.598Z,34.75
2022-10-21T21:36:35.088Z,23.33
2022-10-21T21:41:38.209Z,20.20
2022-10-21T21:46:55.985Z,21.88
2022-10-21T21:52:00.027Z,20.05
2022-10-21T21:57:28.983Z,15.23
2022-10-21T22:02:24.836Z,14.13
2022-10-21T22:07:26.995Z,15.55
2022-10-21T22:12:29.420Z,18.90
2022-10-21T22:17:31.684Z,19.35
2022-10-21T22:22:37.376Z,17.67
2022-10-21T22:27:40.613Z,19.67
2022-10-21T22:32:43.338Z,23.90
2022-10-21T22:37:45.601Z,23.95
2022-10-21T22:42:47.797Z,20.45
2022-10-21T22:47:50.162Z,20.55
2022-10-21T22:52:52.499Z,19.05
2022-10-21T22:57:54.709Z,15.63
2022-10-21T23:02:56.904Z,20.85
2022-10-21T23:07:59.168Z,14.35
2022-10-21T23:13:01.428Z,19.33
2022-10-21T23:18:04.333Z,22.20
2022-10-21T23:23:07.085Z,22.65
2022-10-21T23:28:10.149Z,18.48
2022-10-21T23:33:12.378Z,18.88
2022-10-21T23:38:14.607Z,15.55
2022-10-21T23:43:16.887Z,15.07
2022-10-21T23:48:19.146Z,19.20
2022-10-21T23:53:21.411Z,21.40
2022-10-21T23:58:23.780Z,22.33
